Buoy 51810

sailwx.info

Track history (hours):
 
Tides and Currents Weather Stations Pressure Air Temp Water Temp Dewpoint Dewpoint Depression Visibility Wind Speed Wind Dir Waves Ship Positions

Drifting buoy 51810

Last reported at 2017-Nov-12 14:30 UTC. Time now 2017-Nov-21 08:22 UTC.
Position N 06°14' W 077°24'.
Warning: this ship's position is 8 days out of date.

Air temperature -0.0 ° C
Water temperature 26.4 ° C

Date/timePositionNaut miles runAvg speedWind from/ knotsBaromVisibWave heightAir tempDewpointWater temp
2017-Nov-12 14:30N 06°14' W 077°24'0 0.0 -0.0 26.4
2017-Nov-12 11:00N 06°14' W 077°24'0 0.0 -0.0 24.2
2017-Nov-12 09:00N 06°14' W 077°24'0 0.0 -0.0 24.2
2017-Nov-12 02:00N 06°14' W 077°24'0 0.0 -0.0 24.6
2017-Nov-12 01:00N 06°14' W 077°24'0 0.0 -0.0 24.7
2017-Nov-12 00:00N 06°14' W 077°24'1 1.2 -0.0 24.9
2017-Nov-11 23:30N 06°14' W 077°25'58 6.8 -0.0 25.1
2017-Nov-11 15:00N 05°44' W 078°14'1122.7 -0.0 26.1
2017-Nov-11 14:30N 05°48' W 078°04'714.4 -0.0 25.8
2017-Nov-11 14:00N 05°51' W 077°57'612.9 27.4 25.1
2017-Nov-11 13:30N 05°53' W 077°51'1 0.6 27.5 27.3
2017-Nov-11 12:30N 05°53' W 077°52'1 1.2 27.5 27.4
2017-Nov-11 12:00N 05°53' W 077°52'1 1.2 27.6 27.4
2017-Nov-11 11:00N 05°53' W 077°53'1 1.3 27.3 27.2
2017-Nov-11 10:00N 05°53' W 077°55'1 0.8 27.4 27.1
2017-Nov-11 09:00N 05°52' W 077°55'1 0.8 27.1 27.3
2017-Nov-11 08:00N 05°52' W 077°56'1 1.2 27.2 27.3
2017-Nov-11 07:30N 05°52' W 077°56'1 0.8 27.4 27.3
2017-Nov-11 06:30N 05°51' W 077°57'2 0.8 27.1 27.1
2017-Nov-11 03:30N 05°51' W 077°59'1 1.2 27.6 27.5
2017-Nov-11 02:30N 05°51' W 078°01'1 1.2 27.6 27.5
2017-Nov-11 01:30N 05°51' W 078°02'0 0.0 27.6 27.6
2017-Nov-11 01:00N 05°51' W 078°02'1 1.7 27.6 27.6
2017-Nov-11 00:30N 05°52' W 078°02'1 1.2 27.6 27.6
2017-Nov-11 00:00N 05°52' W 078°03'1 1.2 27.6 27.6
2017-Nov-10 23:30N 05°52' W 078°04'1 1.2 27.6 27.6
2017-Nov-10 23:00N 05°52' W 078°04'1 1.2 27.6 27.6
2017-Nov-10 22:30N 05°52' W 078°05'1 1.7 27.6 27.6
2017-Nov-10 22:00N 05°51' W 078°05'1 0.6 27.6 27.6
2017-Nov-10 21:00N 05°51' W 078°06'1 1.2 27.6 27.6
2017-Nov-10 20:30N 05°51' W 078°07'1 1.3 27.5 27.6
2017-Nov-10 19:30N 05°50' W 078°08'4 0.9 27.5 27.5
2017-Nov-10 15:30N 05°50' W 078°11'1 0.8 27.4 27.4
2017-Nov-10 14:30N 05°50' W 078°12'2 1.2 27.3 27.3
2017-Nov-10 13:00N 05°50' W 078°14'1 1.2 27.4 27.2
2017-Nov-10 12:30N 05°50' W 078°14'1 1.2 27.4 27.2
2017-Nov-10 11:30N 05°50' W 078°16'1 0.8 27.4 27.2
2017-Nov-10 10:30N 05°51' W 078°16'1 1.2 27.4 27.1
2017-Nov-10 10:00N 05°51' W 078°17'1 0.6 27.4 27.1
2017-Nov-10 09:00N 05°51' W 078°17'1 1.3 27.5 27.1
2017-Nov-10 08:00N 05°52' W 078°19'0 0.0 27.4 27.1
2017-Nov-10 07:30N 05°52' W 078°19'4 0.8 27.4 27.1
2017-Nov-10 03:00N 05°52' W 078°22'1 0.8 27.4 27.2
2017-Nov-10 02:00N 05°53' W 078°23'1 1.2 27.4 27.2
2017-Nov-10 01:30N 05°53' W 078°23'1 1.2 27.4 27.2
2017-Nov-10 01:00N 05°53' W 078°24'0 0.0 27.4 27.2
2017-Nov-10 00:30N 05°53' W 078°24'1 1.2 27.4 27.2
2017-Nov-10 00:00N 05°53' W 078°25'0 0.0 27.4 27.3
2017-Nov-09 23:30N 05°53' W 078°25'1 1.7 27.4 27.3
2017-Nov-09 23:00N 05°53' W 078°25'1 0.5 27.4 27.3
2017-Nov-09 20:30N 05°54' W 078°26'2 0.7 27.3 27.2
2017-Nov-09 18:00N 05°55' W 078°28'1 0.2 27.4 27.4
2017-Nov-09 15:30N 05°55' W 078°28'1 1.2 27.2 27.3
2017-Nov-09 15:00N 05°55' W 078°28'0 0.0 27.2 27.2
2017-Nov-09 14:00N 05°55' W 078°28'0 0.0 27.1 27.1
2017-Nov-09 13:30N 05°55' W 078°28'0 0.0 27.1 27.1
2017-Nov-09 13:00N 05°55' W 078°28'0 0.0 27.2 27.0
2017-Nov-09 12:30N 05°55' W 078°28'0 0.0 27.2 26.9
2017-Nov-09 12:00N 05°55' W 078°28'0 0.0 27.2 27.0
2017-Nov-09 11:30N 05°55' W 078°28'0 0.0 27.2 26.9
2017-Nov-09 11:00N 05°55' W 078°28'0 0.0 27.3 27.0
2017-Nov-09 10:30N 05°55' W 078°28'1 0.6 27.3 26.9
2017-Nov-09 09:30N 05°55' W 078°28'1 0.8 27.1 27.0
2017-Nov-09 08:30N 05°56' W 078°29'0 0.0 27.1 27.0
2017-Nov-09 08:00N 05°56' W 078°29'0 0.0 27.1 27.0
2017-Nov-09 07:00N 05°56' W 078°29'1 0.3 27.1 27.0
2017-Nov-09 03:00N 05°56' W 078°30'0 0.0 27.2 27.0
2017-Nov-09 02:30N 05°56' W 078°30'0 0.0 27.2 27.0
2017-Nov-09 01:30N 05°56' W 078°30'0 0.0 27.1 27.2
2017-Nov-09 01:00N 05°56' W 078°30'1 1.2 27.2 27.1
2017-Nov-09 00:30N 05°56' W 078°31'0 0.0 27.2 27.1
2017-Nov-09 00:00N 05°56' W 078°31'0 0.0 27.2 27.1
2017-Nov-08 23:00N 05°56' W 078°31'0 0.0 27.2 27.1
2017-Nov-08 22:30N 05°56' W 078°31'1 1.2 27.2 27.1
2017-Nov-08 22:00N 05°56' W 078°31'1 1.2 27.2 27.1
2017-Nov-08 21:30N 05°57' W 078°31'0 0.0 27.2 27.1
2017-Nov-08 21:00N 05°57' W 078°31'0 0.0 27.2 27.2
2017-Nov-08 20:30N 05°57' W 078°31'1 1.2 27.1 27.2
2017-Nov-08 20:00N 05°58' W 078°31'1 0.6 27.1 27.1
2017-Nov-08 19:00N 05°58' W 078°32'1 0.8 27.1 27.1
2017-Nov-08 18:00N 05°58' W 078°32'2 0.8 27.1 27.1
2017-Nov-08 15:30N 05°59' W 078°34'1 1.2 27.2 27.1
2017-Nov-08 15:00N 05°59' W 078°35'1 0.9 27.2 27.1
2017-Nov-08 13:30N 05°59' W 078°36'1 0.6 27.2 27.1
2017-Nov-08 12:30N 05°59' W 078°37'1 0.6 27.2 27.1
2017-Nov-08 11:30N 05°59' W 078°37'0 0.0 27.2 27.2
2017-Nov-08 11:00N 05°59' W 078°37'0 0.0 27.2 27.2
2017-Nov-08 10:30N 05°59' W 078°37'0 0.0 27.2 27.2
2017-Nov-08 10:00N 05°59' W 078°37'1 1.2 27.2 27.2
2017-Nov-08 09:30N 05°59' W 078°38'1 0.8 27.3 27.2
2017-Nov-08 08:00N 05°59' W 078°39'1 0.6 27.2 27.2
2017-Nov-08 07:00N 05°59' W 078°40'2 0.7 27.2 27.2
2017-Nov-08 03:30N 05°59' W 078°42'2 1.1 27.3 27.3
2017-Nov-08 02:00N 05°58' W 078°43'1 1.3 27.3 27.3
2017-Nov-08 01:00N 05°57' W 078°44'1 1.2 27.3 27.3
2017-Nov-08 00:00N 05°57' W 078°46'1 1.3 27.3 27.3
2017-Nov-07 23:00N 05°56' W 078°47'1 1.3 27.3 27.3
2017-Nov-07 22:00N 05°56' W 078°48'1 1.2 27.3 27.3
2017-Nov-07 21:30N 05°56' W 078°49'1 1.2 27.3 27.3
2017-Nov-07 21:00N 05°56' W 078°49'1 0.8 27.3 27.3
2017-Nov-07 20:00N 05°55' W 078°50'1 0.9 27.3 27.3
2017-Nov-07 18:30N 05°55' W 078°51'3 1.0 27.3 27.3
2017-Nov-07 15:30N 05°53' W 078°53'1 0.8 27.3 27.3
2017-Nov-07 14:30N 05°52' W 078°54'1 1.2 27.3 27.3
2017-Nov-07 14:00N 05°52' W 078°55'3 0.8 27.3 27.3
2017-Nov-07 10:00N 05°50' W 078°57'1 1.2 27.3 27.3
2017-Nov-07 09:30N 05°50' W 078°58'0 0.0 27.3 27.3
2017-Nov-07 09:00N 05°50' W 078°58'1 0.8 27.3 27.3
2017-Nov-07 08:00N 05°49' W 078°58'1 1.3 27.3 27.3
2017-Nov-07 07:00N 05°49' W 078°59'3 1.0 27.3 27.3
2017-Nov-07 04:00N 05°46' W 079°01'2 0.8 27.3 27.3
2017-Nov-07 02:00N 05°45' W 079°02'1 1.2 27.4 27.3
2017-Nov-07 01:30N 05°44' W 079°02'1 1.2 27.4 27.3
2017-Nov-07 01:00N 05°44' W 079°03'1 1.2 27.4 27.4
2017-Nov-07 00:30N 05°44' W 079°03'3 1.5 27.4 27.4
2017-Nov-06 22:30N 05°41' W 079°05'2 1.3 27.4 27.4
2017-Nov-06 21:00N 05°40' W 079°05'1 1.3 27.4 27.5
2017-Nov-06 20:00N 05°38' W 079°06'1 1.2 27.4 27.5
2017-Nov-06 19:30N 05°38' W 079°06'3 0.8 27.3 27.5
2017-Nov-06 16:00N 05°35' W 079°07'1 1.3 27.1 27.2
2017-Nov-06 15:00N 05°34' W 079°08'0 0.0 27.1 27.1
2017-Nov-06 14:30N 05°34' W 079°08'1 1.2 27.1 27.1
2017-Nov-06 14:00N 05°34' W 079°08'1 1.3 27.1 27.1
2017-Nov-06 13:00N 05°32' W 079°08'1 0.6 27.1 27.1
2017-Nov-06 12:00N 05°32' W 079°08'1 1.2 27.1 27.1
2017-Nov-06 11:30N 05°31' W 079°08'1 1.2 27.1 27.1
2017-Nov-06 11:00N 05°31' W 079°09'1 1.2 27.1 27.1
2017-Nov-06 10:00N 05°30' W 079°09'1 0.6 27.1 27.1
2017-Nov-06 09:00N 05°29' W 079°09'1 1.2 27.1 27.1
2017-Nov-06 08:30N 05°29' W 079°09'1 1.3 27.1 27.0
2017-Nov-06 07:30N 05°28' W 079°10'5 1.2 27.0 27.0
2017-Nov-06 03:30N 05°23' W 079°10'1 1.2 27.2 27.1
2017-Nov-06 02:30N 05°22' W 079°10'0 0.0 27.1 27.1
2017-Nov-06 02:00N 05°22' W 079°10'1 0.6 27.2 27.1
2017-Nov-06 01:00N 05°21' W 079°10'1 1.2 27.2 27.1
2017-Nov-06 00:30N 05°20' W 079°10'1 1.2 27.2 27.2
2017-Nov-06 00:00N 05°20' W 079°10'1 0.6 27.2 27.2
2017-Nov-05 23:00N 05°20' W 079°10'1 0.6 27.3 27.2
2017-Nov-05 22:00N 05°19' W 079°10'1 1.7 27.3 27.3
2017-Nov-05 21:30N 05°19' W 079°11'1 1.2 27.3 27.3
2017-Nov-05 21:00N 05°18' W 079°11'2 1.9 27.3 27.3
2017-Nov-05 20:00N 05°16' W 079°11'5 1.2 27.3 27.3
2017-Nov-05 15:30N 05°11' W 079°14'0 0.0 27.1 27.1
2017-Nov-05 15:00N 05°11' W 079°14'1 1.2 27.0 27.1
2017-Nov-05 14:30N 05°11' W 079°14'0 0.0 27.0 27.0
2017-Nov-05 14:00N 05°11' W 079°14'1 0.9 27.0 27.0
2017-Nov-05 12:30N 05°10' W 079°14'1 1.2 27.0 27.0
2017-Nov-05 12:00N 05°09' W 079°14'1 1.2 27.0 27.0
2017-Nov-05 11:30N 05°08' W 079°14'1 1.2 27.0 27.0
2017-Nov-05 10:30N 05°07' W 079°14'2 1.3 27.0 27.0
2017-Nov-05 09:00N 05°05' W 079°15'2 0.6 27.1 27.1
2017-Nov-05 06:00N 05°04' W 079°16'1 0.4 27.1 27.1
2017-Nov-05 03:00N 05°03' W 079°17'0 0.0 27.1 27.1
2017-Nov-05 02:00N 05°03' W 079°17'1 0.4 27.1 27.1
2017-Nov-05 00:30N 05°03' W 079°17'1 1.2 27.2 27.2
2017-Nov-05 00:00N 05°02' W 079°17'1 1.2 27.2 27.2
2017-Nov-04 23:30N 05°02' W 079°18'0 0.0 27.2 27.2
2017-Nov-04 23:00N 05°02' W 079°18'1 0.6 27.2 27.2
2017-Nov-04 22:00N 05°02' W 079°18'1 1.2 27.2 27.2
2017-Nov-04 21:30N 05°02' W 079°19'1 1.2 27.2 27.2
2017-Nov-04 21:00N 05°01' W 079°19'0 0.0 27.2 27.2
2017-Nov-04 20:00N 05°01' W 079°19'1 0.6 27.3 27.2
2017-Nov-04 19:00N 05°01' W 079°19'1 0.2 27.3 27.2
2017-Nov-04 15:00N 05°00' W 079°18'0 0.0 27.3 27.3
2017-Nov-04 14:00N 05°00' W 079°18'1 0.8 27.3 27.3
2017-Nov-04 13:00N 04°59' W 079°17'0 0.0 27.3 27.3
2017-Nov-04 12:30N 04°59' W 079°17'0 0.0 27.3 27.3
2017-Nov-04 11:30N 04°59' W 079°17'1 0.6 27.3 27.3
2017-Nov-04 10:30N 04°59' W 079°17'1 0.6 27.3 27.3
2017-Nov-04 09:30N 04°59' W 079°17'1 0.3 27.3 27.3
2017-Nov-04 07:00N 04°58' W 079°17'0 0.0 27.2 27.2
2017-Nov-04 06:00N 04°58' W 079°17'1 0.2 27.2 27.2
2017-Nov-04 03:00N 04°58' W 079°18'0 0.0 27.3 27.3
2017-Nov-04 02:30N 04°58' W 079°18'1 0.6 27.3 27.3
2017-Nov-04 01:30N 04°58' W 079°19'0 0.0 27.3 27.3
2017-Nov-04 01:00N 04°58' W 079°19'0 0.0 27.3 27.3
2017-Nov-04 00:00N 04°58' W 079°19'1 0.6 27.3 27.3
2017-Nov-03 23:00N 04°58' W 079°19'1 0.6 27.3 27.3
2017-Nov-03 22:00N 04°58' W 079°20'0 0.0 27.3 27.3
2017-Nov-03 21:30N 04°58' W 079°20'1 0.4 27.3 27.3
2017-Nov-03 20:00N 04°58' W 079°20'1 0.6 27.3 27.3
2017-Nov-03 19:00N 04°58' W 079°21'2 0.7 27.3 27.3
2017-Nov-03 15:30N 04°59' W 079°23'1 0.6 27.3 27.3
2017-Nov-03 14:30N 04°59' W 079°23'1 0.9 27.3 27.3
2017-Nov-03 13:00N 04°59' W 079°25'1 0.6 27.3 27.3
2017-Nov-03 12:00N 04°59' W 079°25'1 0.8 27.3 27.3
2017-Nov-03 11:00N 04°58' W 079°26'1 0.6 27.3 27.3
2017-Nov-03 10:00N 04°58' W 079°26'1 0.6 27.3 27.3
2017-Nov-03 09:00N 04°58' W 079°26'1 0.6 27.3 27.3
2017-Nov-03 08:00N 04°58' W 079°27'2 0.4 27.3 27.3
2017-Nov-03 03:30N 04°57' W 079°29'1 0.9 27.4 27.3
2017-Nov-03 02:00N 04°56' W 079°30'1 0.8 27.4 27.4
2017-Nov-03 01:00N 04°56' W 079°31'0 0.0 27.4 27.4
2017-Nov-03 00:30N 04°56' W 079°31'1 1.2 27.4 27.4
2017-Nov-03 00:00N 04°56' W 079°31'1 1.2 27.4 27.4
2017-Nov-02 23:30N 04°55' W 079°31'1 1.2 27.4 27.4
2017-Nov-02 23:00N 04°55' W 079°32'0 0.0 27.4 27.4
2017-Nov-02 22:30N 04°55' W 079°32'0 0.0 27.4 27.4
2017-Nov-02 22:00N 04°55' W 079°32'1 0.8 27.4 27.4
2017-Nov-02 21:00N 04°55' W 079°32'0 0.0 27.4 27.4
2017-Nov-02 20:30N 04°55' W 079°32'1 0.6 27.4 27.4
2017-Nov-02 19:30N 04°55' W 079°33'1 0.3 27.4 27.4
2017-Nov-02 15:30N 04°53' W 079°34'1 1.7 27.3 27.3
2017-Nov-02 15:00N 04°53' W 079°34'   27.3 27.3
Track history (hours):
 
Tides and Currents Weather Stations Pressure Air Temp Water Temp Dewpoint Dewpoint Depression Visibility Wind Speed Wind Dir Waves Ship Positions

Drifting buoy 51810

Last reported at 2017-Nov-12 14:30 UTC. Time now 2017-Nov-21 08:22 UTC.
Position N 06°14' W 077°24'.
Warning: this ship's position is 8 days out of date.

Air temperature -0.0 ° C
Water temperature 26.4 ° C

Date/timePositionNaut miles runAvg speedWind from/ knotsBaromVisibWave heightAir tempDewpointWater temp
2017-Nov-12 14:30N 06°14' W 077°24'0 0.0 -0.0 26.4
2017-Nov-12 11:00N 06°14' W 077°24'0 0.0 -0.0 24.2
2017-Nov-12 09:00N 06°14' W 077°24'0 0.0 -0.0 24.2
2017-Nov-12 02:00N 06°14' W 077°24'0 0.0 -0.0 24.6
2017-Nov-12 01:00N 06°14' W 077°24'0 0.0 -0.0 24.7
2017-Nov-12 00:00N 06°14' W 077°24'1 1.2 -0.0 24.9
2017-Nov-11 23:30N 06°14' W 077°25'58 6.8 -0.0 25.1
2017-Nov-11 15:00N 05°44' W 078°14'1122.7 -0.0 26.1
2017-Nov-11 14:30N 05°48' W 078°04'714.4 -0.0 25.8
2017-Nov-11 14:00N 05°51' W 077°57'612.9 27.4 25.1
2017-Nov-11 13:30N 05°53' W 077°51'1 0.6 27.5 27.3
2017-Nov-11 12:30N 05°53' W 077°52'1 1.2 27.5 27.4
2017-Nov-11 12:00N 05°53' W 077°52'1 1.2 27.6 27.4
2017-Nov-11 11:00N 05°53' W 077°53'1 1.3 27.3 27.2
2017-Nov-11 10:00N 05°53' W 077°55'1 0.8 27.4 27.1
2017-Nov-11 09:00N 05°52' W 077°55'1 0.8 27.1 27.3
2017-Nov-11 08:00N 05°52' W 077°56'1 1.2 27.2 27.3
2017-Nov-11 07:30N 05°52' W 077°56'1 0.8 27.4 27.3
2017-Nov-11 06:30N 05°51' W 077°57'2 0.8 27.1 27.1
2017-Nov-11 03:30N 05°51' W 077°59'1 1.2 27.6 27.5
2017-Nov-11 02:30N 05°51' W 078°01'1 1.2 27.6 27.5
2017-Nov-11 01:30N 05°51' W 078°02'0 0.0 27.6 27.6
2017-Nov-11 01:00N 05°51' W 078°02'1 1.7 27.6 27.6
2017-Nov-11 00:30N 05°52' W 078°02'1 1.2 27.6 27.6
2017-Nov-11 00:00N 05°52' W 078°03'1 1.2 27.6 27.6
2017-Nov-10 23:30N 05°52' W 078°04'1 1.2 27.6 27.6
2017-Nov-10 23:00N 05°52' W 078°04'1 1.2 27.6 27.6
2017-Nov-10 22:30N 05°52' W 078°05'1 1.7 27.6 27.6
2017-Nov-10 22:00N 05°51' W 078°05'1 0.6 27.6 27.6
2017-Nov-10 21:00N 05°51' W 078°06'1 1.2 27.6 27.6
2017-Nov-10 20:30N 05°51' W 078°07'1 1.3 27.5 27.6
2017-Nov-10 19:30N 05°50' W 078°08'4 0.9 27.5 27.5
2017-Nov-10 15:30N 05°50' W 078°11'1 0.8 27.4 27.4
2017-Nov-10 14:30N 05°50' W 078°12'2 1.2 27.3 27.3
2017-Nov-10 13:00N 05°50' W 078°14'1 1.2 27.4 27.2
2017-Nov-10 12:30N 05°50' W 078°14'1 1.2 27.4 27.2
2017-Nov-10 11:30N 05°50' W 078°16'1 0.8 27.4 27.2
2017-Nov-10 10:30N 05°51' W 078°16'1 1.2 27.4 27.1
2017-Nov-10 10:00N 05°51' W 078°17'1 0.6 27.4 27.1
2017-Nov-10 09:00N 05°51' W 078°17'1 1.3 27.5 27.1
2017-Nov-10 08:00N 05°52' W 078°19'0 0.0 27.4 27.1
2017-Nov-10 07:30N 05°52' W 078°19'4 0.8 27.4 27.1
2017-Nov-10 03:00N 05°52' W 078°22'1 0.8 27.4 27.2
2017-Nov-10 02:00N 05°53' W 078°23'1 1.2 27.4 27.2
2017-Nov-10 01:30N 05°53' W 078°23'1 1.2 27.4 27.2
2017-Nov-10 01:00N 05°53' W 078°24'0 0.0 27.4 27.2
2017-Nov-10 00:30N 05°53' W 078°24'1 1.2 27.4 27.2
2017-Nov-10 00:00N 05°53' W 078°25'0 0.0 27.4 27.3
2017-Nov-09 23:30N 05°53' W 078°25'1 1.7 27.4 27.3
2017-Nov-09 23:00N 05°53' W 078°25'1 0.5 27.4 27.3
2017-Nov-09 20:30N 05°54' W 078°26'2 0.7 27.3 27.2
2017-Nov-09 18:00N 05°55' W 078°28'1 0.2 27.4 27.4
2017-Nov-09 15:30N 05°55' W 078°28'1 1.2 27.2 27.3
2017-Nov-09 15:00N 05°55' W 078°28'0 0.0 27.2 27.2
2017-Nov-09 14:00N 05°55' W 078°28'0 0.0 27.1 27.1
2017-Nov-09 13:30N 05°55' W 078°28'0 0.0 27.1 27.1
2017-Nov-09 13:00N 05°55' W 078°28'0 0.0 27.2 27.0
2017-Nov-09 12:30N 05°55' W 078°28'0 0.0 27.2 26.9
2017-Nov-09 12:00N 05°55' W 078°28'0 0.0 27.2 27.0
2017-Nov-09 11:30N 05°55' W 078°28'0 0.0 27.2 26.9
2017-Nov-09 11:00N 05°55' W 078°28'0 0.0 27.3 27.0
2017-Nov-09 10:30N 05°55' W 078°28'1 0.6 27.3 26.9
2017-Nov-09 09:30N 05°55' W 078°28'1 0.8 27.1 27.0
2017-Nov-09 08:30N 05°56' W 078°29'0 0.0 27.1 27.0
2017-Nov-09 08:00N 05°56' W 078°29'0 0.0 27.1 27.0
2017-Nov-09 07:00N 05°56' W 078°29'1 0.3 27.1 27.0
2017-Nov-09 03:00N 05°56' W 078°30'0 0.0 27.2 27.0
2017-Nov-09 02:30N 05°56' W 078°30'0 0.0 27.2 27.0
2017-Nov-09 01:30N 05°56' W 078°30'0 0.0 27.1 27.2
2017-Nov-09 01:00N 05°56' W 078°30'1 1.2 27.2 27.1
2017-Nov-09 00:30N 05°56' W 078°31'0 0.0 27.2 27.1
2017-Nov-09 00:00N 05°56' W 078°31'0 0.0 27.2 27.1
2017-Nov-08 23:00N 05°56' W 078°31'0 0.0 27.2 27.1
2017-Nov-08 22:30N 05°56' W 078°31'1 1.2 27.2 27.1
2017-Nov-08 22:00N 05°56' W 078°31'1 1.2 27.2 27.1
2017-Nov-08 21:30N 05°57' W 078°31'0 0.0 27.2 27.1
2017-Nov-08 21:00N 05°57' W 078°31'0 0.0 27.2 27.2
2017-Nov-08 20:30N 05°57' W 078°31'1 1.2 27.1 27.2
2017-Nov-08 20:00N 05°58' W 078°31'1 0.6 27.1 27.1
2017-Nov-08 19:00N 05°58' W 078°32'1 0.8 27.1 27.1
2017-Nov-08 18:00N 05°58' W 078°32'2 0.8 27.1 27.1
2017-Nov-08 15:30N 05°59' W 078°34'1 1.2 27.2 27.1
2017-Nov-08 15:00N 05°59' W 078°35'1 0.9 27.2 27.1
2017-Nov-08 13:30N 05°59' W 078°36'1 0.6 27.2 27.1
2017-Nov-08 12:30N 05°59' W 078°37'1 0.6 27.2 27.1
2017-Nov-08 11:30N 05°59' W 078°37'0 0.0 27.2 27.2
2017-Nov-08 11:00N 05°59' W 078°37'0 0.0 27.2 27.2
2017-Nov-08 10:30N 05°59' W 078°37'0 0.0 27.2 27.2
2017-Nov-08 10:00N 05°59' W 078°37'1 1.2 27.2 27.2
2017-Nov-08 09:30N 05°59' W 078°38'1 0.8 27.3 27.2
2017-Nov-08 08:00N 05°59' W 078°39'1 0.6 27.2 27.2
2017-Nov-08 07:00N 05°59' W 078°40'2 0.7 27.2 27.2
2017-Nov-08 03:30N 05°59' W 078°42'2 1.1 27.3 27.3
2017-Nov-08 02:00N 05°58' W 078°43'1 1.3 27.3 27.3
2017-Nov-08 01:00N 05°57' W 078°44'1 1.2 27.3 27.3
2017-Nov-08 00:00N 05°57' W 078°46'1 1.3 27.3 27.3
2017-Nov-07 23:00N 05°56' W 078°47'1 1.3 27.3 27.3
2017-Nov-07 22:00N 05°56' W 078°48'1 1.2 27.3 27.3
2017-Nov-07 21:30N 05°56' W 078°49'1 1.2 27.3 27.3
2017-Nov-07 21:00N 05°56' W 078°49'1 0.8 27.3 27.3
2017-Nov-07 20:00N 05°55' W 078°50'1 0.9 27.3 27.3
2017-Nov-07 18:30N 05°55' W 078°51'3 1.0 27.3 27.3
2017-Nov-07 15:30N 05°53' W 078°53'1 0.8 27.3 27.3
2017-Nov-07 14:30N 05°52' W 078°54'1 1.2 27.3 27.3
2017-Nov-07 14:00N 05°52' W 078°55'3 0.8 27.3 27.3
2017-Nov-07 10:00N 05°50' W 078°57'1 1.2 27.3 27.3
2017-Nov-07 09:30N 05°50' W 078°58'0 0.0 27.3 27.3
2017-Nov-07 09:00N 05°50' W 078°58'1 0.8 27.3 27.3
2017-Nov-07 08:00N 05°49' W 078°58'1 1.3 27.3 27.3
2017-Nov-07 07:00N 05°49' W 078°59'3 1.0 27.3 27.3
2017-Nov-07 04:00N 05°46' W 079°01'2 0.8 27.3 27.3
2017-Nov-07 02:00N 05°45' W 079°02'1 1.2 27.4 27.3
2017-Nov-07 01:30N 05°44' W 079°02'1 1.2 27.4 27.3
2017-Nov-07 01:00N 05°44' W 079°03'1 1.2 27.4 27.4
2017-Nov-07 00:30N 05°44' W 079°03'3 1.5 27.4 27.4
2017-Nov-06 22:30N 05°41' W 079°05'2 1.3 27.4 27.4
2017-Nov-06 21:00N 05°40' W 079°05'1 1.3 27.4 27.5
2017-Nov-06 20:00N 05°38' W 079°06'1 1.2 27.4 27.5
2017-Nov-06 19:30N 05°38' W 079°06'3 0.8 27.3 27.5
2017-Nov-06 16:00N 05°35' W 079°07'1 1.3 27.1 27.2
2017-Nov-06 15:00N 05°34' W 079°08'0 0.0 27.1 27.1
2017-Nov-06 14:30N 05°34' W 079°08'1 1.2 27.1 27.1
2017-Nov-06 14:00N 05°34' W 079°08'1 1.3 27.1 27.1
2017-Nov-06 13:00N 05°32' W 079°08'1 0.6 27.1 27.1
2017-Nov-06 12:00N 05°32' W 079°08'1 1.2 27.1 27.1
2017-Nov-06 11:30N 05°31' W 079°08'1 1.2 27.1 27.1
2017-Nov-06 11:00N 05°31' W 079°09'1 1.2 27.1 27.1
2017-Nov-06 10:00N 05°30' W 079°09'1 0.6 27.1 27.1
2017-Nov-06 09:00N 05°29' W 079°09'1 1.2 27.1 27.1
2017-Nov-06 08:30N 05°29' W 079°09'1 1.3 27.1 27.0
2017-Nov-06 07:30N 05°28' W 079°10'5 1.2 27.0 27.0
2017-Nov-06 03:30N 05°23' W 079°10'1 1.2 27.2 27.1
2017-Nov-06 02:30N 05°22' W 079°10'0 0.0 27.1 27.1
2017-Nov-06 02:00N 05°22' W 079°10'1 0.6 27.2 27.1
2017-Nov-06 01:00N 05°21' W 079°10'1 1.2 27.2 27.1
2017-Nov-06 00:30N 05°20' W 079°10'1 1.2 27.2 27.2
2017-Nov-06 00:00N 05°20' W 079°10'1 0.6 27.2 27.2
2017-Nov-05 23:00N 05°20' W 079°10'1 0.6 27.3 27.2
2017-Nov-05 22:00N 05°19' W 079°10'1 1.7 27.3 27.3
2017-Nov-05 21:30N 05°19' W 079°11'1 1.2 27.3 27.3
2017-Nov-05 21:00N 05°18' W 079°11'2 1.9 27.3 27.3
2017-Nov-05 20:00N 05°16' W 079°11'5 1.2 27.3 27.3
2017-Nov-05 15:30N 05°11' W 079°14'0 0.0 27.1 27.1
2017-Nov-05 15:00N 05°11' W 079°14'1 1.2 27.0 27.1
2017-Nov-05 14:30N 05°11' W 079°14'0 0.0 27.0 27.0
2017-Nov-05 14:00N 05°11' W 079°14'1 0.9 27.0 27.0
2017-Nov-05 12:30N 05°10' W 079°14'1 1.2 27.0 27.0
2017-Nov-05 12:00N 05°09' W 079°14'1 1.2 27.0 27.0
2017-Nov-05 11:30N 05°08' W 079°14'1 1.2 27.0 27.0
2017-Nov-05 10:30N 05°07' W 079°14'2 1.3 27.0 27.0
2017-Nov-05 09:00N 05°05' W 079°15'2 0.6 27.1 27.1
2017-Nov-05 06:00N 05°04' W 079°16'1 0.4 27.1 27.1
2017-Nov-05 03:00N 05°03' W 079°17'0 0.0 27.1 27.1
2017-Nov-05 02:00N 05°03' W 079°17'1 0.4 27.1 27.1
2017-Nov-05 00:30N 05°03' W 079°17'1 1.2 27.2 27.2
2017-Nov-05 00:00N 05°02' W 079°17'1 1.2 27.2 27.2
2017-Nov-04 23:30N 05°02' W 079°18'0 0.0 27.2 27.2
2017-Nov-04 23:00N 05°02' W 079°18'1 0.6 27.2 27.2
2017-Nov-04 22:00N 05°02' W 079°18'1 1.2 27.2 27.2
2017-Nov-04 21:30N 05°02' W 079°19'1 1.2 27.2 27.2
2017-Nov-04 21:00N 05°01' W 079°19'0 0.0 27.2 27.2
2017-Nov-04 20:00N 05°01' W 079°19'1 0.6 27.3 27.2
2017-Nov-04 19:00N 05°01' W 079°19'1 0.2 27.3 27.2
2017-Nov-04 15:00N 05°00' W 079°18'0 0.0 27.3 27.3
2017-Nov-04 14:00N 05°00' W 079°18'1 0.8 27.3 27.3
2017-Nov-04 13:00N 04°59' W 079°17'0 0.0 27.3 27.3
2017-Nov-04 12:30N 04°59' W 079°17'0 0.0 27.3 27.3
2017-Nov-04 11:30N 04°59' W 079°17'1 0.6 27.3 27.3
2017-Nov-04 10:30N 04°59' W 079°17'1 0.6 27.3 27.3
2017-Nov-04 09:30N 04°59' W 079°17'1 0.3 27.3 27.3
2017-Nov-04 07:00N 04°58' W 079°17'0 0.0 27.2 27.2
2017-Nov-04 06:00N 04°58' W 079°17'1 0.2 27.2 27.2
2017-Nov-04 03:00N 04°58' W 079°18'0 0.0 27.3 27.3
2017-Nov-04 02:30N 04°58' W 079°18'1 0.6 27.3 27.3
2017-Nov-04 01:30N 04°58' W 079°19'0 0.0 27.3 27.3
2017-Nov-04 01:00N 04°58' W 079°19'0 0.0 27.3 27.3
2017-Nov-04 00:00N 04°58' W 079°19'1 0.6 27.3 27.3
2017-Nov-03 23:00N 04°58' W 079°19'1 0.6 27.3 27.3
2017-Nov-03 22:00N 04°58' W 079°20'0 0.0 27.3 27.3
2017-Nov-03 21:30N 04°58' W 079°20'1 0.4 27.3 27.3
2017-Nov-03 20:00N 04°58' W 079°20'1 0.6 27.3 27.3
2017-Nov-03 19:00N 04°58' W 079°21'2 0.7 27.3 27.3
2017-Nov-03 15:30N 04°59' W 079°23'1 0.6 27.3 27.3
2017-Nov-03 14:30N 04°59' W 079°23'1 0.9 27.3 27.3
2017-Nov-03 13:00N 04°59' W 079°25'1 0.6 27.3 27.3
2017-Nov-03 12:00N 04°59' W 079°25'1 0.8 27.3 27.3
2017-Nov-03 11:00N 04°58' W 079°26'1 0.6 27.3 27.3
2017-Nov-03 10:00N 04°58' W 079°26'1 0.6 27.3 27.3
2017-Nov-03 09:00N 04°58' W 079°26'1 0.6 27.3 27.3
2017-Nov-03 08:00N 04°58' W 079°27'2 0.4 27.3 27.3
2017-Nov-03 03:30N 04°57' W 079°29'1 0.9 27.4 27.3
2017-Nov-03 02:00N 04°56' W 079°30'1 0.8 27.4 27.4
2017-Nov-03 01:00N 04°56' W 079°31'0 0.0 27.4 27.4
2017-Nov-03 00:30N 04°56' W 079°31'1 1.2 27.4 27.4
2017-Nov-03 00:00N 04°56' W 079°31'1 1.2 27.4 27.4
2017-Nov-02 23:30N 04°55' W 079°31'1 1.2 27.4 27.4
2017-Nov-02 23:00N 04°55' W 079°32'0 0.0 27.4 27.4
2017-Nov-02 22:30N 04°55' W 079°32'0 0.0 27.4 27.4
2017-Nov-02 22:00N 04°55' W 079°32'1 0.8 27.4 27.4
2017-Nov-02 21:00N 04°55' W 079°32'0 0.0 27.4 27.4
2017-Nov-02 20:30N 04°55' W 079°32'1 0.6 27.4 27.4
2017-Nov-02 19:30N 04°55' W 079°33'1 0.3 27.4 27.4
2017-Nov-02 15:30N 04°53' W 079°34'1 1.7 27.3 27.3
2017-Nov-02 15:00N 04°53' W 079°34'   27.3 27.3

Dump ship's entire track history